M I D A S
Marine Information and Data Acquisition System
Tripno 417 of the Zeeleeuw from 2003-01-21 07:38:28 to 2003-01-21 20:26:47
Back to CruiseResearch ActivitiesStationsMapUnderway DataData graphs

EquipmentUnitsComments
TimeDGPSUTC
LatitudeDGPSDM.mWGS84
LongitudeDGPSDM.mWGS84
SpeedMeteo Stationm/sRelative wind speed
DirectionMeteo StationdegRelative wind direction
TemperatureMeteo Stationdeg CelciusAir temperature
PressureMeteo StationPaAtmospheric pressure
HumidityMeteo Station%Relative humidity
Missing or incorrect values are displayed as -999
Metereological data collected by the RV Zeeleeuw from 2003-01-21 07:38:28 to 2003-01-21 20:26:47
                                                                                    Next 1000 lines
Time Latitude Longitude Speed Direction Temperature Pressure Humidity
2003-01-21 07:38:38 51°13.688 2°55.787 4.8 111 7.2 98780 83
2003-01-21 07:38:42 51°13.69 2°55.781 6.3 105 7.2 98780 83
2003-01-21 07:38:48 51°13.692 2°55.773 5.9 127 7.2 98780 83
2003-01-21 07:38:53 51°13.693 2°55.768 5.1 131 7.2 98780 83
2003-01-21 07:38:58 51°13.694 2°55.763 5 123 7.2 98780 83
2003-01-21 07:39:03 51°13.695 2°55.76 4.6 126 7.2 98780 83
2003-01-21 07:39:08 51°13.696 2°55.757 3.7 146 7.2 98780 83
2003-01-21 07:39:13 51°13.697 2°55.755 4.6 157 7.2 98780 83
2003-01-21 07:39:18 51°13.698 2°55.753 6.7 135 7.2 98780 83
2003-01-21 07:39:23 51°13.699 2°55.752 6.2 133 7.2 98780 83
2003-01-21 07:39:28 51°13.7 2°55.751 6.8 135 7.2 98780 83
2003-01-21 07:39:34 51°13.702 2°55.751 7.7 122 7.2 98770 83
2003-01-21 07:39:39 51°13.703 2°55.752 5.8 79 7.2 98770 83
2003-01-21 07:39:42 51°13.704 2°55.752 4 89 7.2 98780 83
2003-01-21 07:39:48 51°13.707 2°55.753 5.7 91 7.2 98780 83
2003-01-21 07:39:52 51°13.708 2°55.754 5.1 110 7.2 98770 83
2003-01-21 07:39:58 51°13.711 2°55.755 4.4 66 7.2 98770 83
2003-01-21 07:40:02 51°13.714 2°55.756 5.8 86 7.2 98770 83
2003-01-21 07:40:08 51°13.718 2°55.756 4.6 64 7.2 98770 83
2003-01-21 07:40:14 51°13.724 2°55.756 3.6 83 7.2 98780 83
2003-01-21 07:40:18 51°13.728 2°55.755 5.9 55 7.2 98780 83
2003-01-21 07:40:22 51°13.732 2°55.754 5.8 39 7.2 98780 83
2003-01-21 07:40:28 51°13.739 2°55.75 8.8 27 7.2 98780 83
2003-01-21 07:40:32 51°13.744 2°55.746 8.1 29 7.2 98780 83
2003-01-21 07:40:38 51°13.75 2°55.74 6.3 16 7.2 98780 83
2003-01-21 07:40:43 51°13.755 2°55.733 4.5 355 7.2 98780 84
2003-01-21 07:40:48 51°13.76 2°55.726 2.4 323 7.2 98780 84
2003-01-21 07:40:53 51°13.765 2°55.719 2.2 349 7.2 98790 84
2003-01-21 07:40:58 51°13.77 2°55.711 4.1 17 7.2 98790 84
2003-01-21 07:41:03 51°13.775 2°55.703 3 340 7.2 98800 84
2003-01-21 07:41:08 51°13.78 2°55.695 4.6 15 7.2 98800 84
2003-01-21 07:41:12 51°13.783 2°55.688 3.6 344 7.2 98790 83
2003-01-21 07:41:18 51°13.789 2°55.679 3.3 350 7.2 98790 83
2003-01-21 07:41:22 51°13.794 2°55.673 3.3 9 7.2 98790 83
2003-01-21 07:41:28 51°13.8 2°55.663 4.2 346 7.2 98790 83
2003-01-21 07:41:33 51°13.806 2°55.656 2.7 340 7.2 98780 83
2003-01-21 07:41:38 51°13.812 2°55.649 2.8 8 7.2 98780 83
2003-01-21 07:41:44 51°13.819 2°55.641 3 14 7.2 98780 83
2003-01-21 07:47:14 51°14.328 2°55.096 4.2 296 -999 -999 -999
2003-01-21 07:47:20 51°14.337 2°55.08 3.7 270 7.2 98790 83
2003-01-21 07:47:26 51°14.345 2°55.064 2.3 309 7.2 98790 83
2003-01-21 07:47:30 51°14.351 2°55.054 3.2 289 7.2 98800 83
2003-01-21 07:47:34 51°14.356 2°55.043 3.4 319 7.2 98800 83
2003-01-21 07:47:40 51°14.365 2°55.027 2.1 345 7.2 98800 83
2003-01-21 07:47:44 51°14.37 2°55.017 1.9 322 7.2 98800 83
2003-01-21 07:47:50 51°14.379 2°55.001 2.4 347 7.3 98800 83
2003-01-21 07:47:54 51°14.386 2°54.99 4.1 296 7.3 98800 83
2003-01-21 07:48:00 51°14.396 2°54.974 2.8 313 7.3 98790 83
2003-01-21 07:48:04 51°14.404 2°54.963 4.7 305 7.3 98790 83
2003-01-21 07:48:10 51°14.417 2°54.947 2.6 338 7.3 98790 83
2003-01-21 07:48:14 51°14.426 2°54.937 2.9 318 7.3 98790 83
2003-01-21 07:48:20 51°14.441 2°54.923 3 310 7.2 98790 83
2003-01-21 07:48:25 51°14.454 2°54.912 2.2 334 7.2 98790 83
2003-01-21 07:48:30 51°14.468 2°54.902 2.6 335 7.2 98790 83
2003-01-21 07:48:36 51°14.483 2°54.887 2.2 320 7.2 98790 83
2003-01-21 07:48:40 51°14.494 2°54.876 3.2 302 7.2 98790 83
2003-01-21 07:48:44 51°14.504 2°54.865 4.4 333 7.2 98790 83
2003-01-21 07:48:50 51°14.52 2°54.85 2 337 7.2 98790 83
2003-01-21 07:48:54 51°14.53 2°54.839 2.7 347 7.2 98790 83
2003-01-21 07:49:00 51°14.546 2°54.821 2.5 320 7.2 98790 83
2003-01-21 07:49:05 51°14.558 2°54.804 3.6 324 7.2 98790 83
2003-01-21 07:49:10 51°14.57 2°54.786 3.4 319 7.2 98790 83
2003-01-21 07:49:14 51°14.58 2°54.772 2.8 318 7.2 98790 83
2003-01-21 07:49:20 51°14.595 2°54.751 2.1 339 7.2 98800 83
2003-01-21 07:49:25 51°14.607 2°54.733 1.9 342 7.2 98800 83
2003-01-21 07:49:30 51°14.62 2°54.717 2.1 338 7.2 98790 83
2003-01-21 07:49:36 51°14.636 2°54.698 4.3 343 7.2 98790 83
2003-01-21 07:49:40 51°14.647 2°54.685 0.6 321 7.2 98790 83
2003-01-21 07:49:45 51°14.66 2°54.669 3.2 310 7.2 98790 83
2003-01-21 07:49:50 51°14.673 2°54.652 1.5 329 7.2 98790 83
2003-01-21 07:49:54 51°14.684 2°54.639 1.6 336 7.2 98790 83
2003-01-21 07:50:00 51°14.7 2°54.618 1.5 352 7.2 98800 83
2003-01-21 07:50:04 51°14.711 2°54.605 1.2 357 7.2 98800 83
2003-01-21 07:50:10 51°14.727 2°54.587 1.3 321 7.2 98790 83
2003-01-21 07:50:14 51°14.739 2°54.575 1.5 309 7.2 98790 83
2003-01-21 07:50:20 51°14.755 2°54.557 2.5 316 7.2 98790 83
2003-01-21 07:50:24 51°14.766 2°54.544 4 318 7.2 98790 83
2003-01-21 07:50:30 51°14.782 2°54.524 1.4 306 7.2 98800 83
2003-01-21 07:50:34 51°14.792 2°54.51 4.4 298 7.2 98800 83
2003-01-21 07:50:40 51°14.808 2°54.49 2.2 310 7.2 98800 83
2003-01-21 07:50:45 51°14.822 2°54.475 2.3 327 7.2 98800 83
2003-01-21 07:50:50 51°14.837 2°54.461 2.9 351 7.2 98800 83
2003-01-21 07:50:54 51°14.849 2°54.45 3.7 7 7.2 98800 83
2003-01-21 07:51:00 51°14.866 2°54.435 4.9 347 7.2 98800 83
2003-01-21 07:51:04 51°14.878 2°54.425 4.3 347 7.2 98800 83
2003-01-21 07:51:10 51°14.895 2°54.408 1.5 316 7.2 98800 83
2003-01-21 07:51:14 51°14.906 2°54.397 2.9 299 7.2 98800 83
2003-01-21 07:51:20 51°14.922 2°54.378 2.8 328 7.2 98800 83
2003-01-21 07:51:25 51°14.936 2°54.364 1.1 317 7.2 98800 83
2003-01-21 07:51:30 51°14.95 2°54.349 0.8 326 7.2 98800 83
2003-01-21 07:51:35 51°14.964 2°54.336 2.8 341 7.2 98800 83
2003-01-21 07:51:40 51°14.979 2°54.324 2.1 352 7.2 98800 83
2003-01-21 07:51:44 51°14.99 2°54.314 3.3 349 7.2 98800 83
2003-01-21 07:51:50 51°15.007 2°54.299 3.7 344 7.2 98800 83
2003-01-21 07:51:54 51°15.019 2°54.287 3.9 350 7.2 98800 83
2003-01-21 07:52:00 51°15.035 2°54.27 3.1 351 7.2 98800 83
2003-01-21 07:52:05 51°15.049 2°54.255 6 349 7.2 98800 83
2003-01-21 07:52:10 51°15.063 2°54.24 1.7 333 7.2 98800 83
2003-01-21 07:52:16 51°15.079 2°54.223 1.2 322 7.2 98800 83
2003-01-21 07:52:20 51°15.091 2°54.212 0.7 325 7.2 98800 83
2003-01-21 07:52:25 51°15.105 2°54.198 2.8 289 7.2 98800 83
2003-01-21 07:52:30 51°15.119 2°54.184 1 319 7.2 98800 83
2003-01-21 07:52:34 51°15.131 2°54.173 1.5 337 7.2 98800 83
2003-01-21 07:52:40 51°15.148 2°54.156 0.9 340 7.2 98800 83
2003-01-21 07:52:45 51°15.163 2°54.143 1.1 333 7.2 98800 83
2003-01-21 07:52:50 51°15.177 2°54.129 1.7 341 7.1 98800 83
2003-01-21 07:52:54 51°15.189 2°54.117 0.9 326 7.1 98800 83
2003-01-21 07:53:00 51°15.206 2°54.099 1.8 345 7.1 98800 83
2003-01-21 07:53:04 51°15.217 2°54.086 1.3 343 7.1 98800 83
2003-01-21 07:53:10 51°15.234 2°54.069 4.8 360 7.1 98800 83
2003-01-21 07:53:14 51°15.246 2°54.057 5.2 3 7.1 98800 83
2003-01-21 07:53:20 51°15.263 2°54.04 0.8 329 7.1 98790 83
2003-01-21 07:53:25 51°15.278 2°54.026 0.7 330 7.1 98790 83
2003-01-21 07:53:30 51°15.292 2°54.013 0.8 319 7.1 98810 83
2003-01-21 07:53:34 51°15.304 2°54.002 1.4 326 7.1 98810 83
2003-01-21 07:53:40 51°15.322 2°53.985 4.2 341 7.1 98800 83
2003-01-21 07:53:44 51°15.333 2°53.973 2.1 350 7.1 98800 83
2003-01-21 07:53:50 51°15.351 2°53.956 1.7 334 7.1 98800 83
2003-01-21 07:53:54 51°15.363 2°53.945 2.7 345 7.1 98800 83
2003-01-21 07:54:00 51°15.38 2°53.927 3.1 347 7.1 98800 83
2003-01-21 07:54:04 51°15.392 2°53.916 2.8 358 7.1 98800 83
2003-01-21 07:54:10 51°15.41 2°53.9 5.8 351 7.1 98800 83
2003-01-21 07:54:14 51°15.421 2°53.888 5.6 349 7.1 98800 83
2003-01-21 07:54:20 51°15.438 2°53.871 3.7 301 7.1 98800 83
2003-01-21 07:54:25 51°15.452 2°53.855 2.1 346 7.1 98800 83
2003-01-21 07:54:30 51°15.467 2°53.84 1.1 333 7.1 98800 83
2003-01-21 07:54:34 51°15.478 2°53.828 5.4 347 7.1 98800 83
2003-01-21 07:54:40 51°15.496 2°53.812 4.7 342 7.1 98800 84
2003-01-21 07:54:44 51°15.508 2°53.801 5.1 356 7.1 98800 84
2003-01-21 07:54:50 51°15.526 2°53.786 5.5 350 7.1 98800 83
2003-01-21 07:54:55 51°15.541 2°53.772 2.7 323 7.1 98800 83
2003-01-21 07:55:00 51°15.556 2°53.759 1.6 348 7.1 98800 84
2003-01-21 07:55:04 51°15.567 2°53.747 1.1 327 7.1 98800 84
2003-01-21 07:55:10 51°15.584 2°53.729 2.4 335 7.1 98800 83
2003-01-21 07:55:15 51°15.597 2°53.715 1.5 346 7.1 98800 83
2003-01-21 07:55:20 51°15.611 2°53.7 2.3 333 7.1 98800 83
2003-01-21 07:55:25 51°15.624 2°53.686 3.5 319 7.1 98800 83
2003-01-21 07:55:30 51°15.637 2°53.673 5 352 7.1 98800 83
2003-01-21 07:55:35 51°15.65 2°53.66 1 342 7.1 98800 83
2003-01-21 07:55:40 51°15.664 2°53.649 4.1 350 7.1 98790 83
2003-01-21 07:55:44 51°15.674 2°53.64 3.6 338 7.1 98790 83
2003-01-21 07:55:50 51°15.69 2°53.628 3.3 355 7.1 98790 83
2003-01-21 07:55:54 51°15.701 2°53.622 4.6 9 7.1 98790 83
2003-01-21 07:56:00 51°15.717 2°53.616 2.9 36 7.1 98790 83
2003-01-21 07:56:04 51°15.728 2°53.615 2.3 94 7.1 98790 83
2003-01-21 07:56:10 51°15.743 2°53.617 4.1 61 7.2 98790 83
2003-01-21 07:56:14 51°15.752 2°53.619 4.9 78 7.2 98790 83
2003-01-21 07:56:20 51°15.765 2°53.624 5 85 7.1 98790 83
2003-01-21 07:56:25 51°15.774 2°53.63 5.9 89 7.1 98790 83
2003-01-21 07:56:30 51°15.783 2°53.637 7.2 93 7.1 98790 84
2003-01-21 07:56:36 51°15.793 2°53.645 8.1 103 7.1 98790 84
2003-01-21 07:56:40 51°15.799 2°53.651 7.6 94 7.1 98780 84
2003-01-21 07:56:46 51°15.809 2°53.659 6.7 93 7.1 98780 84
2003-01-21 07:56:50 51°15.814 2°53.665 8.4 100 7.1 98780 84
2003-01-21 07:56:54 51°15.82 2°53.67 8.2 104 7.1 98780 84
2003-01-21 07:57:00 51°15.829 2°53.68 8 101 7.1 98780 84
2003-01-21 07:57:05 51°15.836 2°53.687 8.4 100 7.1 98780 84
2003-01-21 07:57:10 51°15.842 2°53.694 8.9 95 7.1 98780 84
2003-01-21 07:57:14 51°15.847 2°53.7 9 95 7.1 98780 84
2003-01-21 07:57:20 51°15.855 2°53.709 7.9 98 7.1 98780 84
2003-01-21 07:57:26 51°15.863 2°53.718 6 104 7.1 98780 84
2003-01-21 07:57:30 51°15.868 2°53.724 7.7 109 7.1 98780 84
2003-01-21 07:57:34 51°15.873 2°53.73 7.1 95 7.1 98780 84
2003-01-21 07:57:40 51°15.88 2°53.738 5.8 76 7.1 98770 84
2003-01-21 07:57:46 51°15.888 2°53.745 8 93 7.1 98770 84
2003-01-21 07:57:50 51°15.893 2°53.75 8.3 85 7.1 98780 84
2003-01-21 07:57:54 51°15.899 2°53.754 9.4 91 7.1 98780 84
2003-01-21 07:58:00 51°15.907 2°53.761 8.2 91 7.1 98780 84
2003-01-21 07:58:04 51°15.912 2°53.766 7.7 86 7.1 98780 84
2003-01-21 07:58:10 51°15.919 2°53.774 7.4 95 7.1 98780 84
2003-01-21 07:58:14 51°15.924 2°53.779 7 108 7.1 98780 84
2003-01-21 07:58:20 51°15.931 2°53.788 7.1 103 7.1 98780 84
2003-01-21 07:58:25 51°15.937 2°53.795 6.9 105 7.1 98780 84
2003-01-21 07:58:30 51°15.942 2°53.802 8.2 110 7.1 98780 84
2003-01-21 07:58:35 51°15.948 2°53.81 7.2 106 7.1 98780 84
2003-01-21 07:58:40 51°15.953 2°53.817 8.4 103 7.1 98780 84
2003-01-21 07:58:44 51°15.957 2°53.823 7.6 109 7.1 98780 84
2003-01-21 07:58:50 51°15.964 2°53.831 10.2 102 7.1 98770 84
2003-01-21 07:58:54 51°15.969 2°53.836 9.4 94 7.1 98770 84
2003-01-21 07:59:00 51°15.975 2°53.844 8.3 96 7.1 98770 84
2003-01-21 07:59:04 51°15.98 2°53.85 9 96 7.1 98770 84
2003-01-21 07:59:10 51°15.987 2°53.858 8.6 110 7 98780 84
2003-01-21 07:59:14 51°15.991 2°53.863 7.9 102 7 98780 84
2003-01-21 07:59:20 51°15.998 2°53.871 8.2 96 7.1 98780 84
2003-01-21 07:59:25 51°16.004 2°53.877 7.8 98 7.1 98780 84
2003-01-21 07:59:30 51°16.009 2°53.885 9.4 102 7.1 98770 84
2003-01-21 07:59:34 51°16.014 2°53.89 9.3 111 7.1 98770 84
2003-01-21 07:59:40 51°16.02 2°53.898 9.3 104 7.1 98770 84
2003-01-21 07:59:44 51°16.024 2°53.902 9.8 95 7.1 98770 84
2003-01-21 07:59:50 51°16.031 2°53.91 9 93 7.1 98770 84
2003-01-21 07:59:54 51°16.036 2°53.916 7.8 100 7.1 98770 84
2003-01-21 08:00:00 51°16.043 2°53.925 7.7 102 7.1 98770 84
2003-01-21 08:00:04 51°16.048 2°53.931 7.1 105 7.1 98770 84
2003-01-21 08:00:10 51°16.056 2°53.94 7 112 7.1 98770 84
2003-01-21 08:00:14 51°16.061 2°53.947 8.4 110 7.1 98770 84
2003-01-21 08:00:20 51°16.069 2°53.957 9 117 7.1 98780 84
2003-01-21 08:00:25 51°16.075 2°53.965 9.6 107 7.1 98780 84
2003-01-21 08:00:30 51°16.081 2°53.974 8.9 111 7.1 98780 84
2003-01-21 08:00:35 51°16.087 2°53.982 8.4 105 7.1 98780 84
2003-01-21 08:00:40 51°16.092 2°53.99 8.3 106 7.1 98780 84
2003-01-21 08:00:45 51°16.097 2°53.998 8.6 112 7.1 98780 84
2003-01-21 08:00:50 51°16.101 2°54.006 8.2 114 7.1 98780 84
2003-01-21 08:00:55 51°16.106 2°54.014 8 116 7.1 98780 84
2003-01-21 08:01:00 51°16.11 2°54.022 8.6 109 7.1 98770 84
2003-01-21 08:01:04 51°16.113 2°54.028 9.5 107 7.1 98770 84
2003-01-21 08:01:10 51°16.117 2°54.037 8.7 100 7.1 98780 84
2003-01-21 08:01:15 51°16.121 2°54.044 8.3 106 7.1 98780 84
2003-01-21 08:01:20 51°16.124 2°54.05 8.6 107 7.1 98770 84
2003-01-21 08:01:26 51°16.129 2°54.058 7.9 113 7.1 98770 84
2003-01-21 08:01:30 51°16.131 2°54.063 7.2 96 7.1 98780 84
2003-01-21 08:01:35 51°16.135 2°54.068 8.3 101 7.1 98780 84
2003-01-21 08:01:40 51°16.139 2°54.074 7.6 107 7.1 98780 84
2003-01-21 08:01:45 51°16.142 2°54.08 8.7 94 7.1 98780 84
2003-01-21 08:01:50 51°16.146 2°54.085 7.8 112 7.1 98780 84
2003-01-21 08:01:54 51°16.148 2°54.09 7.1 109 7.1 98780 84
2003-01-21 08:02:00 51°16.152 2°54.096 7.5 119 7.1 98780 84
2003-01-21 08:02:04 51°16.155 2°54.101 8.2 113 7.1 98780 84
2003-01-21 08:02:10 51°16.158 2°54.108 8 120 7.1 98780 84
2003-01-21 08:02:16 51°16.161 2°54.114 8.5 121 7.1 98780 84
2003-01-21 08:02:20 51°16.163 2°54.119 7.9 123 7.1 98780 84
2003-01-21 08:02:26 51°16.166 2°54.127 8.8 119 7.1 98780 84
2003-01-21 08:02:30 51°16.167 2°54.132 7.6 113 7.1 98780 84
2003-01-21 08:02:34 51°16.169 2°54.137 9.3 121 7.1 98780 84
2003-01-21 08:02:40 51°16.171 2°54.144 9.2 116 7 98780 84
2003-01-21 08:02:45 51°16.173 2°54.15 9.2 108 7 98780 84
2003-01-21 08:02:50 51°16.175 2°54.155 9.5 119 7 98770 84
2003-01-21 08:02:55 51°16.177 2°54.16 9.2 106 7 98770 84
2003-01-21 08:03:00 51°16.179 2°54.166 8 115 7.1 98770 84
2003-01-21 08:03:04 51°16.18 2°54.171 8.6 114 7.1 98770 84
2003-01-21 08:03:10 51°16.183 2°54.177 8.9 114 7 98770 84
2003-01-21 08:03:15 51°16.184 2°54.183 8.6 115 7 98770 84
2003-01-21 08:03:20 51°16.186 2°54.188 7.7 128 7 98770 84
2003-01-21 08:03:24 51°16.188 2°54.192 8.8 116 7 98770 84
2003-01-21 08:03:30 51°16.191 2°54.197 8.2 113 7 98780 84
2003-01-21 08:03:36 51°16.193 2°54.202 9.3 109 7 98780 84
2003-01-21 08:03:40 51°16.195 2°54.205 10.9 103 7 98780 84
2003-01-21 08:03:45 51°16.198 2°54.208 11.5 105 7 98780 84
2003-01-21 08:03:50 51°16.2 2°54.211 10.2 103 7 98780 84
2003-01-21 08:03:55 51°16.203 2°54.215 10.4 98 7 98780 84
2003-01-21 08:04:00 51°16.206 2°54.218 10.9 97 7 98780 84
2003-01-21 08:04:04 51°16.209 2°54.22 10.8 96 7 98780 84
2003-01-21 08:04:10 51°16.213 2°54.223 10.4 91 7 98780 84
2003-01-21 08:04:14 51°16.215 2°54.225 10.2 93 7 98780 84
2003-01-21 08:04:20 51°16.22 2°54.227 9 90 7 98780 84
2003-01-21 08:04:25 51°16.223 2°54.229 10.3 91 7 98780 84
2003-01-21 08:04:30 51°16.227 2°54.232 10.6 81 7 98780 84
2003-01-21 08:04:35 51°16.231 2°54.234 9.4 89 7 98780 84
2003-01-21 08:04:40 51°16.234 2°54.237 8.4 98 7.1 98780 84
2003-01-21 08:04:45 51°16.237 2°54.239 9.5 104 7.1 98780 84
2003-01-21 08:04:50 51°16.24 2°54.242 9.2 108 7.1 98770 84
2003-01-21 08:04:54 51°16.242 2°54.244 8.1 113 7.1 98770 84
2003-01-21 08:05:00 51°16.245 2°54.247 8.3 106 7.1 98770 84
2003-01-21 08:05:04 51°16.247 2°54.249 9.9 106 7.1 98770 84
2003-01-21 08:05:10 51°16.25 2°54.252 9.6 113 7.1 98770 84
2003-01-21 08:05:14 51°16.251 2°54.255 8.7 115 7.1 98770 84
2003-01-21 08:05:20 51°16.253 2°54.259 8.2 130 7.1 98770 84
2003-01-21 08:05:25 51°16.254 2°54.263 8.3 132 7.1 98770 84
2003-01-21 08:05:30 51°16.255 2°54.266 8.5 132 7.1 98770 84
2003-01-21 08:05:34 51°16.256 2°54.269 9.1 127 7.1 98770 84
2003-01-21 08:05:40 51°16.256 2°54.273 9.3 130 7.1 98770 84
2003-01-21 08:05:44 51°16.257 2°54.275 8 133 7.1 98770 84
2003-01-21 08:05:50 51°16.257 2°54.279 8.4 138 7.1 98770 84
2003-01-21 08:05:54 51°16.257 2°54.281 8.7 139 7.1 98770 84
2003-01-21 08:06:00 51°16.257 2°54.284 9 142 7.1 98780 84
2003-01-21 08:06:05 51°16.257 2°54.287 8.7 142 7.1 98780 84
2003-01-21 08:06:10 51°16.257 2°54.29 9.5 149 7.1 98770 84
2003-01-21 08:06:14 51°16.257 2°54.292 9.2 135 7.1 98770 84
2003-01-21 08:06:20 51°16.256 2°54.295 8.9 155 7.1 98780 84
2003-01-21 08:06:24 51°16.256 2°54.297 9.1 154 7.1 98780 84
2003-01-21 08:06:30 51°16.255 2°54.299 9.6 152 7.1 98780 84
2003-01-21 08:06:34 51°16.255 2°54.3 8.4 154 7.1 98780 84
2003-01-21 08:06:40 51°16.254 2°54.302 11.1 156 7.1 98770 84
2003-01-21 08:06:46 51°16.253 2°54.303 11.1 155 7.1 98770 84
2003-01-21 08:06:50 51°16.253 2°54.304 10 152 7.1 98770 84
2003-01-21 08:06:54 51°16.253 2°54.305 9.9 154 7.1 98770 84
2003-01-21 08:07:00 51°16.252 2°54.306 10.2 153 7 98770 84
2003-01-21 08:07:05 51°16.252 2°54.307 10.3 151 7 98770 84
2003-01-21 08:07:10 51°16.251 2°54.308 10.3 149 7.1 98760 84
2003-01-21 08:07:14 51°16.251 2°54.309 9.6 161 7.1 98760 84
2003-01-21 08:07:20 51°16.25 2°54.309 9.2 153 7 98760 84
2003-01-21 08:07:26 51°16.25 2°54.31 9.7 152 7 98760 84
2003-01-21 08:07:30 51°16.25 2°54.311 10.7 156 7 98760 84
2003-01-21 08:07:34 51°16.249 2°54.311 9.2 151 7 98760 84
2003-01-21 08:07:40 51°16.249 2°54.312 9.9 149 7 98760 84
2003-01-21 08:07:44 51°16.249 2°54.312 9.3 159 7 98760 84
2003-01-21 08:07:50 51°16.248 2°54.313 10.7 158 7 98770 84
2003-01-21 08:07:54 51°16.248 2°54.313 10.3 161 7 98770 84
2003-01-21 08:08:00 51°16.247 2°54.313 10.2 153 7 98770 84
2003-01-21 08:08:05 51°16.247 2°54.313 10.1 159 7 98770 84
2003-01-21 08:08:10 51°16.247 2°54.314 11.2 164 7 98770 84
2003-01-21 08:08:14 51°16.247 2°54.314 10.5 165 7 98770 84
2003-01-21 08:08:20 51°16.246 2°54.314 10.5 142 7 98760 84
2003-01-21 08:08:25 51°16.246 2°54.314 9.6 143 7 98760 84
2003-01-21 08:08:30 51°16.246 2°54.314 8.6 152 7 98760 84
2003-01-21 08:08:34 51°16.245 2°54.314 9 150 7 98760 84
2003-01-21 08:08:40 51°16.245 2°54.313 9 151 7 98770 84
2003-01-21 08:08:45 51°16.245 2°54.313 9.8 155 7 98770 84
2003-01-21 08:08:50 51°16.245 2°54.313 9.2 162 7 98760 84
2003-01-21 08:08:54 51°16.244 2°54.313 8.7 152 7 98760 84
2003-01-21 08:09:00 51°16.244 2°54.312 8 156 7 98770 84
2003-01-21 08:09:05 51°16.243 2°54.312 7.5 164 7 98770 84
2003-01-21 08:09:10 51°16.243 2°54.312 7.4 162 7 98770 84
2003-01-21 08:09:15 51°16.243 2°54.311 8.1 162 7 98770 84
2003-01-21 08:09:20 51°16.242 2°54.311 9 165 7 98770 84
2003-01-21 08:09:25 51°16.242 2°54.31 8.1 164 7 98770 84
2003-01-21 08:09:30 51°16.242 2°54.31 10 159 7 98770 84
2003-01-21 08:09:34 51°16.241 2°54.309 9 165 7 98770 84
2003-01-21 08:09:40 51°16.241 2°54.309 11.7 168 7 98770 84
2003-01-21 08:09:45 51°16.241 2°54.308 11.4 159 7 98770 84
2003-01-21 08:09:50 51°16.241 2°54.308 12.1 156 7 98770 84
2003-01-21 08:09:54 51°16.24 2°54.307 11.3 157 7 98770 84
2003-01-21 08:10:00 51°16.24 2°54.306 10.5 150 7 98760 84
2003-01-21 08:10:05 51°16.24 2°54.306 8.8 151 7 98760 84
2003-01-21 08:10:10 51°16.24 2°54.305 8.6 153 7 98760 84
2003-01-21 08:10:14 51°16.24 2°54.305 8.7 145 7 98760 84
2003-01-21 08:10:20 51°16.239 2°54.304 8.6 157 7 98760 84
2003-01-21 08:10:24 51°16.239 2°54.303 9.4 151 7 98760 84
2003-01-21 08:10:30 51°16.239 2°54.302 9.2 155 7 98760 84
2003-01-21 08:10:34 51°16.239 2°54.302 8.6 149 7 98760 84
2003-01-21 08:10:40 51°16.238 2°54.301 9.7 147 7 98760 84
2003-01-21 08:10:45 51°16.238 2°54.3 9.2 148 7 98760 84
2003-01-21 08:10:50 51°16.238 2°54.299 9.2 145 7 98760 84
2003-01-21 08:10:54 51°16.238 2°54.299 9.1 153 7 98760 84
2003-01-21 08:11:00 51°16.238 2°54.298 9.4 148 7 98770 84
2003-01-21 08:11:06 51°16.238 2°54.297 9 155 7 98770 84
2003-01-21 08:11:10 51°16.238 2°54.296 9.3 153 7 98760 84
2003-01-21 08:11:14 51°16.238 2°54.296 9.1 154 7 98760 84
2003-01-21 08:11:20 51°16.238 2°54.295 9.7 153 7 98760 84
2003-01-21 08:11:25 51°16.237 2°54.294 9 157 7 98760 84
2003-01-21 08:11:30 51°16.237 2°54.293 8.7 159 7 98770 84
2003-01-21 08:11:34 51°16.237 2°54.292 8.6 155 7 98770 84
2003-01-21 08:11:40 51°16.237 2°54.291 8.5 158 6.9 98770 84
2003-01-21 08:11:44 51°16.237 2°54.291 8.8 151 6.9 98770 84
2003-01-21 08:11:50 51°16.236 2°54.29 8.3 162 6.9 98760 84
2003-01-21 08:11:54 51°16.236 2°54.289 9.8 162 6.9 98760 84
2003-01-21 08:12:00 51°16.236 2°54.288 9.2 143 6.9 98760 84
2003-01-21 08:12:04 51°16.236 2°54.288 9.6 148 6.9 98760 84
2003-01-21 08:12:10 51°16.236 2°54.287 9.9 149 7 98760 84
2003-01-21 08:12:14 51°16.235 2°54.286 9.1 152 7 98760 84
2003-01-21 08:12:20 51°16.235 2°54.285 8.1 144 6.9 98760 84
2003-01-21 08:12:25 51°16.235 2°54.284 8 147 6.9 98760 84
2003-01-21 08:12:30 51°16.235 2°54.283 8.5 161 6.9 98760 84
2003-01-21 08:12:34 51°16.235 2°54.283 8.5 150 6.9 98760 84
2003-01-21 08:12:40 51°16.235 2°54.282 8.9 160 6.9 98760 84
2003-01-21 08:12:44 51°16.235 2°54.281 8.1 159 6.9 98760 84
2003-01-21 08:12:50 51°16.234 2°54.28 9.4 161 6.9 98760 84
2003-01-21 08:12:54 51°16.234 2°54.279 8.6 155 6.9 98760 84
2003-01-21 08:13:00 51°16.234 2°54.278 8.9 158 6.9 98760 84
2003-01-21 08:13:05 51°16.234 2°54.277 9 165 6.9 98760 84
2003-01-21 08:13:10 51°16.234 2°54.276 8 165 6.9 98760 84
2003-01-21 08:13:14 51°16.234 2°54.275 8.7 153 6.9 98760 84
2003-01-21 08:13:20 51°16.233 2°54.274 9 148 6.9 98770 84
2003-01-21 08:13:25 51°16.233 2°54.273 8.2 147 6.9 98770 84
2003-01-21 08:13:30 51°16.233 2°54.272 8.1 155 6.9 98770 84
2003-01-21 08:13:35 51°16.233 2°54.272 8.3 159 6.9 98770 84
2003-01-21 08:13:40 51°16.233 2°54.271 9.7 160 6.9 98760 85
2003-01-21 08:13:45 51°16.233 2°54.27 9.1 159 6.9 98760 85
2003-01-21 08:13:50 51°16.232 2°54.269 10.2 161 6.9 98760 85
2003-01-21 08:13:55 51°16.232 2°54.269 9.6 159 6.9 98760 85
2003-01-21 08:14:00 51°16.232 2°54.268 10.4 160 6.9 98760 85
2003-01-21 08:14:04 51°16.232 2°54.268 9.8 154 6.9 98760 85
2003-01-21 08:14:10 51°16.232 2°54.267 9.5 153 6.9 98760 85
2003-01-21 08:14:14 51°16.232 2°54.267 8.7 157 6.9 98760 85
2003-01-21 08:14:20 51°16.232 2°54.267 9.1 153 6.9 98760 85
2003-01-21 08:14:25 51°16.231 2°54.267 8.8 150 6.9 98760 85
2003-01-21 08:14:30 51°16.231 2°54.267 8.6 160 6.9 98760 85
2003-01-21 08:14:34 51°16.231 2°54.267 8.9 148 6.9 98760 85
2003-01-21 08:14:40 51°16.231 2°54.267 8.9 155 6.9 98760 85
2003-01-21 08:14:45 51°16.23 2°54.267 9.2 159 6.9 98760 85
2003-01-21 08:14:50 51°16.23 2°54.267 9.6 156 6.9 98760 85
2003-01-21 08:14:55 51°16.23 2°54.268 9.3 152 6.9 98760 85
2003-01-21 08:15:00 51°16.23 2°54.268 9.6 158 6.9 98760 85
2003-01-21 08:15:05 51°16.23 2°54.268 10.7 159 6.9 98760 85
2003-01-21 08:15:11 51°16.229 2°54.269 9.4 143 6.9 98760 85
2003-01-21 08:15:15 51°16.229 2°54.269 8.7 146 6.9 98760 85
2003-01-21 08:15:21 51°16.229 2°54.269 8.9 149 6.9 98760 85
2003-01-21 08:15:25 51°16.228 2°54.27 9.3 153 6.9 98760 85
2003-01-21 08:15:29 51°16.228 2°54.27 8.8 149 6.9 98760 85
2003-01-21 08:15:35 51°16.228 2°54.27 9.3 155 6.9 98760 85
2003-01-21 08:15:41 51°16.228 2°54.271 8.8 159 6.9 98760 85
2003-01-21 08:15:46 51°16.227 2°54.271 8.7 149 6.9 98760 85
2003-01-21 08:15:51 51°16.227 2°54.271 10.4 155 6.9 98770 85
2003-01-21 08:15:55 51°16.227 2°54.271 10.5 151 6.9 98770 85
2003-01-21 08:16:01 51°16.227 2°54.272 11.1 149 6.9 98760 85
2003-01-21 08:16:06 51°16.227 2°54.272 10 153 6.9 98760 85
2003-01-21 08:16:11 51°16.226 2°54.272 9.4 151 6.9 98760 85
2003-01-21 08:16:15 51°16.226 2°54.272 9.8 158 6.9 98760 85
2003-01-21 08:16:21 51°16.226 2°54.272 9.3 148 6.9 98760 85
2003-01-21 08:16:25 51°16.226 2°54.273 8.6 152 6.9 98760 85
2003-01-21 08:16:31 51°16.226 2°54.273 8.2 149 6.9 98760 85
2003-01-21 08:16:35 51°16.226 2°54.273 10.8 157 6.9 98760 85
2003-01-21 08:16:41 51°16.225 2°54.273 9.4 156 6.9 98770 85
2003-01-21 08:16:45 51°16.225 2°54.273 11 152 6.9 98770 85
2003-01-21 08:16:51 51°16.225 2°54.273 11.9 153 6.9 98760 85
2003-01-21 08:16:55 51°16.225 2°54.273 10.9 158 6.9 98760 85
2003-01-21 08:17:01 51°16.225 2°54.273 11 149 6.9 98770 85
2003-01-21 08:17:05 51°16.225 2°54.273 10.9 153 6.9 98770 85
2003-01-21 08:17:11 51°16.225 2°54.273 10.6 148 6.9 98760 85
2003-01-21 08:17:15 51°16.225 2°54.273 9.4 153 6.9 98760 85
2003-01-21 08:17:21 51°16.225 2°54.273 9.6 156 6.9 98740 85
2003-01-21 08:17:25 51°16.225 2°54.273 9.2 154 6.9 98740 85
2003-01-21 08:17:31 51°16.225 2°54.273 9.2 150 6.9 98760 85
2003-01-21 08:17:35 51°16.225 2°54.272 8.5 144 6.9 98760 85
2003-01-21 08:17:41 51°16.225 2°54.272 9.3 152 6.9 98750 85
2003-01-21 08:17:45 51°16.225 2°54.272 9.2 144 6.9 98750 85
2003-01-21 08:17:51 51°16.225 2°54.272 9.5 145 7 98760 85
2003-01-21 08:17:56 51°16.225 2°54.272 9.5 157 7 98760 85
2003-01-21 08:18:01 51°16.225 2°54.272 8.4 148 6.9 98760 85
2003-01-21 08:18:05 51°16.225 2°54.272 10.1 143 6.9 98760 85
2003-01-21 08:18:11 51°16.225 2°54.272 9.3 145 6.9 98760 85
2003-01-21 08:18:16 51°16.225 2°54.272 7.9 152 6.9 98760 85
2003-01-21 08:18:21 51°16.225 2°54.272 9.5 146 6.9 98760 85
2003-01-21 08:18:25 51°16.225 2°54.272 8.9 150 6.9 98760 85
2003-01-21 08:18:31 51°16.224 2°54.272 8.8 151 6.9 98760 85
2003-01-21 08:18:36 51°16.224 2°54.272 9.5 147 6.9 98760 85
2003-01-21 08:18:41 51°16.224 2°54.272 9.2 139 6.9 98770 85
2003-01-21 08:18:45 51°16.224 2°54.272 11.4 141 6.9 98770 85
2003-01-21 08:18:51 51°16.224 2°54.272 9.9 135 6.9 98760 85
2003-01-21 08:18:55 51°16.224 2°54.273 10.7 141 6.9 98760 85
2003-01-21 08:19:01 51°16.224 2°54.273 10.6 142 6.9 98760 85
2003-01-21 08:19:05 51°16.224 2°54.273 12.2 131 6.9 98760 85
2003-01-21 08:19:11 51°16.224 2°54.273 11.4 141 6.9 98760 85
2003-01-21 08:19:15 51°16.224 2°54.273 11 141 6.9 98760 85
2003-01-21 08:19:21 51°16.224 2°54.273 11 142 6.9 98760 85
2003-01-21 08:19:26 51°16.224 2°54.273 10 142 6.9 98760 85
2003-01-21 08:19:31 51°16.224 2°54.274 9.7 148 6.9 98760 85
2003-01-21 08:19:35 51°16.224 2°54.274 9.7 149 6.9 98760 85
2003-01-21 08:19:41 51°16.224 2°54.274 9.3 141 6.9 98760 85
2003-01-21 08:19:45 51°16.224 2°54.274 9.8 142 6.9 98760 85
2003-01-21 08:19:51 51°16.224 2°54.274 8.3 143 6.9 98760 85
2003-01-21 08:19:55 51°16.224 2°54.274 9.3 142 6.9 98760 85
2003-01-21 08:20:01 51°16.224 2°54.274 8.2 138 6.9 98760 85
2003-01-21 08:20:05 51°16.224 2°54.274 9.1 139 6.9 98760 85
2003-01-21 08:20:11 51°16.224 2°54.274 9.3 146 6.9 98770 85
2003-01-21 08:20:16 51°16.224 2°54.274 9.5 145 6.9 98770 85
2003-01-21 08:20:21 51°16.224 2°54.275 8.9 140 6.9 98770 85
2003-01-21 08:20:25 51°16.224 2°54.275 10.3 151 6.9 98770 85
2003-01-21 08:20:31 51°16.224 2°54.275 9.4 141 6.9 98770 85
2003-01-21 08:20:35 51°16.224 2°54.275 9.3 142 6.9 98770 85
2003-01-21 08:20:41 51°16.224 2°54.275 9.3 148 6.9 98770 85
2003-01-21 08:20:45 51°16.224 2°54.275 9.4 141 6.9 98770 85
2003-01-21 08:20:51 51°16.224 2°54.275 10.4 137 6.9 98770 85
2003-01-21 08:20:55 51°16.223 2°54.275 9.6 143 6.9 98770 85
2003-01-21 08:21:01 51°16.224 2°54.275 9.7 142 6.9 98770 85
2003-01-21 08:21:05 51°16.224 2°54.275 9.4 141 6.9 98770 85
2003-01-21 08:21:11 51°16.223 2°54.275 8.4 144 6.9 98770 85
2003-01-21 08:21:15 51°16.223 2°54.275 9.5 148 6.9 98770 85
2003-01-21 08:21:21 51°16.224 2°54.275 10 140 6.9 98770 85
2003-01-21 08:21:25 51°16.224 2°54.275 10.4 142 6.9 98770 85
2003-01-21 08:21:31 51°16.224 2°54.275 10.3 150 6.9 98770 85
2003-01-21 08:21:35 51°16.224 2°54.275 11 144 6.9 98770 85
2003-01-21 08:21:41 51°16.223 2°54.275 10 146 6.9 98760 85
2003-01-21 08:21:46 51°16.223 2°54.275 9.4 143 6.9 98760 85
2003-01-21 08:21:51 51°16.224 2°54.275 8.8 141 6.9 98770 85
2003-01-21 08:21:55 51°16.224 2°54.274 9.5 145 6.9 98770 85
2003-01-21 08:22:01 51°16.224 2°54.274 8.9 141 6.9 98760 85
2003-01-21 08:22:06 51°16.224 2°54.274 9.3 146 6.9 98760 85
2003-01-21 08:22:11 51°16.224 2°54.274 11.6 143 6.9 98760 85
2003-01-21 08:22:15 51°16.223 2°54.274 10.5 144 6.9 98760 85
2003-01-21 08:22:21 51°16.224 2°54.274 10.5 140 6.9 98770 85
2003-01-21 08:22:25 51°16.223 2°54.274 10.5 141 6.9 98770 85
2003-01-21 08:22:31 51°16.224 2°54.274 8.9 138 6.9 98770 85
2003-01-21 08:22:35 51°16.224 2°54.274 8.8 143 6.9 98770 85
2003-01-21 08:22:39 51°16.224 2°54.274 9.6 144 6.9 98760 85
2003-01-21 08:22:46 51°16.224 2°54.274 9 142 6.9 98760 85
2003-01-21 08:22:51 51°16.224 2°54.274 9.4 140 6.9 98760 85
2003-01-21 08:22:55 51°16.224 2°54.274 9.7 135 6.9 98760 85
2003-01-21 08:23:01 51°16.224 2°54.274 10.8 148 6.9 98760 85
2003-01-21 08:23:05 51°16.224 2°54.274 10.5 144 6.9 98760 85
2003-01-21 08:23:11 51°16.224 2°54.274 11.1 144 6.9 98770 85
2003-01-21 08:23:15 51°16.224 2°54.274 11.3 142 6.9 98770 85
2003-01-21 08:23:21 51°16.224 2°54.274 11.1 137 6.9 98770 85
2003-01-21 08:23:26 51°16.224 2°54.274 10.3 134 6.9 98770 85
2003-01-21 08:23:31 51°16.224 2°54.274 9.4 139 6.9 98760 85
2003-01-21 08:23:35 51°16.224 2°54.274 9.4 146 6.9 98760 85
2003-01-21 08:23:41 51°16.223 2°54.274 9.9 143 6.9 98770 85
2003-01-21 08:23:46 51°16.223 2°54.274 11 145 6.9 98770 85
2003-01-21 08:23:51 51°16.223 2°54.274 10.7 146 6.9 98760 85
2003-01-21 08:23:55 51°16.223 2°54.274 10.3 143 6.9 98760 85
2003-01-21 08:24:01 51°16.223 2°54.274 12.1 149 6.9 98770 85
2003-01-21 08:24:06 51°16.223 2°54.274 10.3 136 6.9 98770 85
2003-01-21 08:24:11 51°16.223 2°54.274 10 135 6.9 98760 85
2003-01-21 08:24:15 51°16.223 2°54.273 9.7 144 6.9 98760 85
2003-01-21 08:24:21 51°16.223 2°54.273 11.8 138 6.9 98760 85
2003-01-21 08:24:25 51°16.223 2°54.274 10.6 136 6.9 98760 85
2003-01-21 08:24:31 51°16.223 2°54.274 10.8 136 6.9 98760 85
2003-01-21 08:24:35 51°16.223 2°54.274 8.9 140 6.9 98760 85
2003-01-21 08:24:41 51°16.223 2°54.274 10.9 136 6.9 98760 85
2003-01-21 08:24:45 51°16.223 2°54.274 11.1 140 6.9 98760 85
2003-01-21 08:24:51 51°16.223 2°54.274 10.4 142 6.9 98760 85
2003-01-21 08:24:56 51°16.223 2°54.274 10 144 6.9 98760 85
2003-01-21 08:25:00 51°16.223 2°54.274 10.1 140 6.9 98760 85
2003-01-21 08:25:05 51°16.223 2°54.274 9.1 139 6.9 98760 85
2003-01-21 08:25:11 51°16.223 2°54.274 10.3 139 6.9 98760 85
2003-01-21 08:25:15 51°16.223 2°54.274 9.4 140 6.9 98760 85
2003-01-21 08:25:21 51°16.223 2°54.274 9 141 6.9 98760 85
2003-01-21 08:25:25 51°16.223 2°54.274 10.6 135 6.9 98760 85
2003-01-21 08:25:31 51°16.223 2°54.274 10.1 138 6.9 98760 85
2003-01-21 08:25:36 51°16.223 2°54.274 8.3 146 6.9 98760 85
2003-01-21 08:25:41 51°16.223 2°54.274 9.3 146 6.9 98770 85
2003-01-21 08:25:45 51°16.223 2°54.274 8.4 130 6.9 98770 85
2003-01-21 08:25:51 51°16.223 2°54.275 9.4 139 6.9 98760 85
2003-01-21 08:25:55 51°16.223 2°54.275 12.1 142 6.9 98760 85
2003-01-21 08:26:01 51°16.223 2°54.275 11.2 142 6.9 98760 85
2003-01-21 08:26:05 51°16.223 2°54.275 12 143 6.9 98760 85
2003-01-21 08:26:11 51°16.223 2°54.274 11.7 136 6.9 98770 85
2003-01-21 08:26:15 51°16.222 2°54.274 10.1 142 6.9 98770 85
2003-01-21 08:26:21 51°16.223 2°54.275 11.6 139 6.9 98770 85
2003-01-21 08:26:25 51°16.223 2°54.275 10.4 139 6.9 98770 85
2003-01-21 08:26:31 51°16.223 2°54.275 9.9 139 6.9 98760 85
2003-01-21 08:26:35 51°16.223 2°54.275 11.1 145 6.9 98760 85
2003-01-21 08:26:41 51°16.223 2°54.275 10.8 140 6.9 98760 85
2003-01-21 08:26:45 51°16.223 2°54.275 10.1 143 6.9 98760 85
2003-01-21 08:26:51 51°16.223 2°54.275 9.4 133 6.9 98760 85
2003-01-21 08:26:55 51°16.222 2°54.275 8.9 139 6.9 98760 85
2003-01-21 08:26:59 51°16.222 2°54.275 10.4 143 6.9 98760 85
2003-01-21 08:27:06 51°16.222 2°54.275 9.2 142 6.9 98760 85
2003-01-21 08:27:11 51°16.221 2°54.274 11.4 150 6.9 98760 85
2003-01-21 08:27:16 51°16.221 2°54.274 11 138 6.9 98760 85
2003-01-21 08:27:21 51°16.221 2°54.274 12.4 144 6.9 98760 85
2003-01-21 08:27:25 51°16.221 2°54.274 10.4 144 6.9 98760 85
2003-01-21 08:27:31 51°16.221 2°54.275 11.4 139 6.9 98760 85
2003-01-21 08:27:35 51°16.222 2°54.275 10.3 141 6.9 98760 85
2003-01-21 08:27:41 51°16.222 2°54.274 9.8 136 6.9 98760 85
2003-01-21 08:27:46 51°16.222 2°54.275 9.4 135 6.9 98760 85
2003-01-21 08:27:51 51°16.223 2°54.275 9.1 139 6.9 98760 85
2003-01-21 08:27:55 51°16.223 2°54.275 7.9 142 6.9 98760 85
2003-01-21 08:28:01 51°16.223 2°54.275 9.5 142 6.9 98760 85
2003-01-21 08:28:06 51°16.223 2°54.275 10.2 140 6.9 98760 85
2003-01-21 08:28:09 51°16.223 2°54.275 9.3 135 6.9 98760 85
2003-01-21 08:28:16 51°16.223 2°54.275 8.9 142 6.9 98760 85
2003-01-21 08:28:21 51°16.223 2°54.275 8.8 139 6.9 98760 85
2003-01-21 08:28:25 51°16.223 2°54.275 10 148 6.9 98760 85
2003-01-21 08:28:31 51°16.223 2°54.275 8.1 142 6.9 98770 85
2003-01-21 08:28:35 51°16.223 2°54.275 7.7 138 6.9 98770 85
2003-01-21 08:28:41 51°16.223 2°54.275 10.2 145 6.9 98770 85
2003-01-21 08:28:46 51°16.223 2°54.275 9.8 133 6.9 98770 85
2003-01-21 08:28:51 51°16.223 2°54.275 10 134 6.9 98770 85
2003-01-21 08:28:56 51°16.223 2°54.275 9.4 131 6.9 98770 85
2003-01-21 08:29:01 51°16.223 2°54.275 9.8 130 6.9 98770 85
2003-01-21 08:29:06 51°16.223 2°54.275 9.1 134 6.9 98770 85
2003-01-21 08:29:11 51°16.222 2°54.275 8.1 138 6.9 98770 85
2003-01-21 08:29:15 51°16.222 2°54.275 8.4 134 6.9 98770 85
2003-01-21 08:29:21 51°16.222 2°54.275 8.8 141 6.9 98770 85
2003-01-21 08:29:25 51°16.222 2°54.275 8.2 131 6.9 98770 85
2003-01-21 08:29:31 51°16.221 2°54.276 8.6 133 6.9 98770 85
2003-01-21 08:29:35 51°16.221 2°54.276 10.2 135 6.9 98770 85
2003-01-21 08:29:41 51°16.221 2°54.276 8.6 135 6.9 98770 85
2003-01-21 08:29:45 51°16.221 2°54.276 9.2 135 6.9 98770 85
2003-01-21 08:29:51 51°16.22 2°54.276 9 133 6.9 98770 85
2003-01-21 08:29:55 51°16.22 2°54.276 10.9 140 6.9 98770 85
2003-01-21 08:30:01 51°16.22 2°54.277 10 137 6.9 98770 85
2003-01-21 08:30:05 51°16.22 2°54.277 12.1 131 6.9 98770 85
2003-01-21 08:30:11 51°16.221 2°54.277 9.9 132 6.9 98770 85
2003-01-21 08:30:15 51°16.221 2°54.277 10.9 136 6.9 98770 85
2003-01-21 08:30:21 51°16.221 2°54.278 10 142 6.9 98770 85
2003-01-21 08:30:25 51°16.221 2°54.278 10.8 136 6.9 98770 85
2003-01-21 08:30:31 51°16.221 2°54.278 9.4 132 6.9 98770 85
2003-01-21 08:30:35 51°16.221 2°54.278 9.2 136 6.9 98770 85
2003-01-21 08:30:41 51°16.221 2°54.278 10.4 134 6.9 98770 85
2003-01-21 08:30:46 51°16.221 2°54.278 9.7 134 6.9 98770 85
2003-01-21 08:30:51 51°16.221 2°54.278 8.8 131 6.9 98760 85
2003-01-21 08:30:55 51°16.221 2°54.278 10.1 135 6.9 98760 85
2003-01-21 08:30:59 51°16.222 2°54.279 10.4 132 6.9 98760 85
2003-01-21 08:31:05 51°16.222 2°54.279 8.7 134 6.9 98760 85
2003-01-21 08:31:11 51°16.222 2°54.279 10.3 134 6.9 98770 85
2003-01-21 08:31:15 51°16.222 2°54.279 11.1 134 6.9 98770 85
2003-01-21 08:31:21 51°16.222 2°54.279 10.7 127 6.9 98770 85
2003-01-21 08:31:25 51°16.223 2°54.279 10.1 132 6.9 98770 85
2003-01-21 08:31:31 51°16.223 2°54.279 8.3 135 6.9 98780 85
2003-01-21 08:31:35 51°16.223 2°54.279 8.7 128 6.9 98780 85
2003-01-21 08:31:41 51°16.223 2°54.278 9.1 128 6.9 98770 85
2003-01-21 08:31:46 51°16.223 2°54.278 8.5 130 6.9 98770 85
2003-01-21 08:31:51 51°16.224 2°54.278 9.3 129 6.9 98760 85
2003-01-21 08:31:56 51°16.224 2°54.278 8 124 6.9 98760 85
2003-01-21 08:32:01 51°16.224 2°54.278 8.6 132 6.9 98760 85
2003-01-21 08:32:06 51°16.224 2°54.278 9.7 137 6.9 98760 85
2003-01-21 08:32:11 51°16.224 2°54.277 9.1 132 6.9 98770 85
2003-01-21 08:32:15 51°16.224 2°54.277 11.3 123 6.9 98770 85
2003-01-21 08:32:21 51°16.224 2°54.277 9.3 132 6.9 98770 85
2003-01-21 08:32:26 51°16.224 2°54.277 8.3 134 6.9 98770 85
2003-01-21 08:32:31 51°16.224 2°54.277 8.5 133 6.9 98770 85
2003-01-21 08:32:35 51°16.224 2°54.277 9.2 138 6.9 98770 85
2003-01-21 08:32:41 51°16.224 2°54.276 8.7 132 6.8 98760 85
2003-01-21 08:32:45 51°16.224 2°54.276 9.7 135 6.8 98760 85
2003-01-21 08:32:51 51°16.224 2°54.276 9.4 144 6.9 98770 85
2003-01-21 08:32:56 51°16.224 2°54.276 8.8 134 6.9 98770 85
2003-01-21 08:33:01 51°16.224 2°54.275 8.9 134 6.9 98770 85
2003-01-21 08:33:06 51°16.224 2°54.275 10.3 138 6.9 98770 85
2003-01-21 08:33:11 51°16.224 2°54.275 8.8 131 6.8 98770 85
2003-01-21 08:33:15 51°16.225 2°54.274 8.8 133 6.8 98770 85
2003-01-21 08:33:21 51°16.224 2°54.274 9.7 126 6.9 98770 85
2003-01-21 08:33:25 51°16.225 2°54.274 9.8 145 6.9 98770 85
2003-01-21 08:33:31 51°16.225 2°54.273 10.3 136 6.9 98770 85
2003-01-21 08:33:35 51°16.225 2°54.273 9 132 6.9 98770 85
2003-01-21 08:33:41 51°16.225 2°54.273 10 128 6.9 98760 85
2003-01-21 08:33:46 51°16.225 2°54.273 9.2 133 6.9 98760 85
2003-01-21 08:33:51 51°16.225 2°54.272 11 135 6.8 98760 85
2003-01-21 08:33:55 51°16.225 2°54.272 10.2 132 6.8 98760 85
2003-01-21 08:34:01 51°16.225 2°54.272 9.2 133 6.9 98760 85
2003-01-21 08:34:05 51°16.225 2°54.272 9.7 126 6.9 98760 85
2003-01-21 08:34:11 51°16.226 2°54.272 9 148 6.9 98770 85
2003-01-21 08:34:16 51°16.226 2°54.272 8.5 143 6.9 98770 85
2003-01-21 08:34:21 51°16.226 2°54.271 8.4 152 6.9 98760 85
2003-01-21 08:34:25 51°16.226 2°54.271 9.3 153 6.9 98760 85
2003-01-21 08:34:31 51°16.226 2°54.271 8 134 6.9 98760 85
2003-01-21 08:34:35 51°16.226 2°54.271 9.3 145 6.9 98760 85
2003-01-21 08:34:41 51°16.226 2°54.271 8.3 141 6.8 98770 85
2003-01-21 08:34:46 51°16.225 2°54.271 8.1 138 6.8 98770 85
2003-01-21 08:34:51 51°16.225 2°54.271 9 138 6.9 98760 85
2003-01-21 08:34:55 51°16.225 2°54.271 8.4 136 6.9 98760 85
2003-01-21 08:35:01 51°16.225 2°54.271 9.5 133 6.8 98770 85
2003-01-21 08:35:06 51°16.225 2°54.271 7.3 136 6.8 98770 85
2003-01-21 08:35:11 51°16.225 2°54.271 10.8 142 6.8 98770 85
2003-01-21 08:35:15 51°16.225 2°54.271 9.9 134 6.8 98770 85
2003-01-21 08:35:21 51°16.225 2°54.272 8.9 141 6.8 98770 85
2003-01-21 08:35:25 51°16.225 2°54.272 9.5 146 6.8 98770 85
2003-01-21 08:35:31 51°16.225 2°54.272 9.4 135 6.8 98770 85
2003-01-21 08:35:35 51°16.225 2°54.272 8.9 142 6.8 98770 85
2003-01-21 08:35:41 51°16.225 2°54.272 8.2 143 6.8 98760 85
2003-01-21 08:35:45 51°16.225 2°54.272 8.7 130 6.8 98760 85
2003-01-21 08:35:51 51°16.225 2°54.273 8.5 145 6.8 98770 85
2003-01-21 08:35:55 51°16.225 2°54.273 9.2 137 6.8 98770 85
2003-01-21 08:36:01 51°16.225 2°54.273 9 134 6.8 98770 85
2003-01-21 08:36:05 51°16.225 2°54.273 9.4 133 6.8 98770 85
2003-01-21 08:36:11 51°16.225 2°54.273 10.2 145 6.8 98770 85
2003-01-21 08:36:15 51°16.224 2°54.273 9.6 141 6.8 98770 85
2003-01-21 08:36:21 51°16.225 2°54.273 9.5 139 6.8 98760 85
2003-01-21 08:36:25 51°16.224 2°54.273 9.7 141 6.8 98760 85
2003-01-21 08:36:31 51°16.225 2°54.273 8.8 144 6.8 98760 85
2003-01-21 08:36:35 51°16.224 2°54.273 9.5 137 6.8 98760 85
2003-01-21 08:36:41 51°16.224 2°54.274 8 137 6.8 98770 85
2003-01-21 08:36:46 51°16.224 2°54.274 9.1 144 6.8 98770 85
2003-01-21 08:36:51 51°16.224 2°54.274 9.3 141 6.8 98760 85
2003-01-21 08:36:55 51°16.224 2°54.274 8.5 133 6.8 98760 85
2003-01-21 08:37:01 51°16.224 2°54.274 9.6 136 6.8 98770 85
2003-01-21 08:37:05 51°16.224 2°54.274 9.6 139 6.8 98770 85
2003-01-21 08:37:11 51°16.224 2°54.274 11.1 130 6.8 98770 85
2003-01-21 08:37:15 51°16.224 2°54.274 11.4 143 6.8 98770 85
2003-01-21 08:37:21 51°16.224 2°54.274 9.7 147 6.8 98770 85
2003-01-21 08:37:25 51°16.224 2°54.274 9.4 135 6.8 98770 85
2003-01-21 08:37:31 51°16.224 2°54.274 9.9 135 6.8 98770 85
2003-01-21 08:37:35 51°16.224 2°54.274 9.1 146 6.8 98770 85
2003-01-21 08:37:41 51°16.224 2°54.274 9.7 141 6.8 98770 85
2003-01-21 08:37:46 51°16.224 2°54.274 9.9 148 6.8 98770 85
2003-01-21 08:37:51 51°16.224 2°54.274 11.5 145 6.8 98770 85
2003-01-21 08:37:55 51°16.224 2°54.274 10.2 154 6.8 98770 85
2003-01-21 08:38:01 51°16.223 2°54.274 9.1 144 6.8 98770 85
2003-01-21 08:38:05 51°16.223 2°54.274 8.9 141 6.8 98770 85
2003-01-21 08:38:11 51°16.223 2°54.274 9.3 147 6.8 98770 85
2003-01-21 08:38:15 51°16.223 2°54.274 8.3 142 6.8 98770 85
2003-01-21 08:38:21 51°16.223 2°54.274 9.2 145 6.8 98770 85
2003-01-21 08:38:25 51°16.223 2°54.274 10 143 6.8 98770 85
2003-01-21 08:38:31 51°16.223 2°54.275 9.9 142 6.8 98760 85
2003-01-21 08:38:36 51°16.223 2°54.275 10 146 6.8 98760 85
2003-01-21 08:38:41 51°16.223 2°54.275 9.5 142 6.8 98770 85
2003-01-21 08:38:45 51°16.223 2°54.275 10.4 143 6.8 98770 85
2003-01-21 08:38:51 51°16.222 2°54.276 10.2 142 6.8 98770 85
2003-01-21 08:38:55 51°16.222 2°54.276 10.1 143 6.8 98770 85
2003-01-21 08:39:01 51°16.222 2°54.276 9.4 137 6.8 98770 85
2003-01-21 08:39:05 51°16.222 2°54.276 8.9 137 6.8 98770 85
2003-01-21 08:39:11 51°16.222 2°54.276 8.7 137 6.8 98770 85
2003-01-21 08:39:15 51°16.222 2°54.277 10 145 6.8 98770 85
2003-01-21 08:39:21 51°16.222 2°54.277 11.7 148 6.8 98760 85
2003-01-21 08:39:25 51°16.222 2°54.277 12.7 139 6.8 98760 85
2003-01-21 08:39:31 51°16.222 2°54.277 10.9 138 6.9 98770 85
2003-01-21 08:39:35 51°16.222 2°54.278 11.1 140 6.9 98770 85
2003-01-21 08:39:41 51°16.222 2°54.278 10.4 145 6.9 98770 85
2003-01-21 08:39:45 51°16.222 2°54.278 10.9 146 6.9 98770 85
2003-01-21 08:39:51 51°16.222 2°54.278 10 142 6.9 98760 85
2003-01-21 08:39:55 51°16.222 2°54.278 9.7 144 6.9 98760 85
2003-01-21 08:40:01 51°16.222 2°54.279 9.9 138 6.9 98760 85
2003-01-21 08:40:05 51°16.222 2°54.279 9.6 152 6.9 98760 85
2003-01-21 08:40:11 51°16.222 2°54.279 10.2 145 6.9 98770 85
2003-01-21 08:40:15 51°16.222 2°54.279 10 148 6.9 98770 85
2003-01-21 08:40:21 51°16.221 2°54.279 10.1 144 6.9 98760 85
2003-01-21 08:40:25 51°16.221 2°54.279 9.6 141 6.9 98760 85
2003-01-21 08:40:31 51°16.221 2°54.279 8.7 142 6.9 98770 85
2003-01-21 08:40:35 51°16.221 2°54.279 10.2 139 6.9 98770 85
2003-01-21 08:40:41 51°16.221 2°54.279 9.6 140 6.9 98770 85
2003-01-21 08:40:45 51°16.221 2°54.279 9.6 140 6.9 98770 85
2003-01-21 08:40:51 51°16.221 2°54.279 10 142 6.9 98770 85
2003-01-21 08:40:55 51°16.221 2°54.279 10.8 140 6.9 98770 85
2003-01-21 08:41:01 51°16.221 2°54.279 11.4 147 6.9 98770 85
2003-01-21 08:41:05 51°16.221 2°54.279 11.3 143 6.9 98770 85
2003-01-21 08:41:11 51°16.221 2°54.279 12 140 6.9 98770 85
2003-01-21 08:41:15 51°16.221 2°54.279 9.8 143 6.9 98770 85
2003-01-21 08:41:21 51°16.221 2°54.279 10.5 136 6.9 98770 85
2003-01-21 08:41:25 51°16.221 2°54.279 9.7 138 6.9 98770 85
2003-01-21 08:41:31 51°16.221 2°54.279 10.1 136 6.9 98770 85
2003-01-21 08:41:35 51°16.221 2°54.279 9.2 141 6.9 98770 85
2003-01-21 08:41:41 51°16.221 2°54.279 10 149 6.9 98770 85
2003-01-21 08:41:45 51°16.22 2°54.279 4.4 143 6.9 98770 85
2003-01-21 08:41:51 51°16.22 2°54.279 10.3 139 6.9 98770 85
2003-01-21 08:41:55 51°16.22 2°54.279 10.9 133 6.9 98770 85
2003-01-21 08:42:01 51°16.22 2°54.28 10.7 138 6.9 98780 85
2003-01-21 08:42:05 51°16.22 2°54.28 9.6 138 6.9 98780 85
2003-01-21 08:42:11 51°16.22 2°54.28 10.6 130 6.9 98770 85
2003-01-21 08:42:15 51°16.22 2°54.28 10.7 132 6.9 98770 85
2003-01-21 08:42:20 51°16.22 2°54.28 10.5 130 6.9 98770 85
2003-01-21 08:42:26 51°16.22 2°54.28 10.1 139 6.9 98770 85
2003-01-21 08:42:31 51°16.22 2°54.281 11.5 130 6.9 98770 85
2003-01-21 08:42:35 51°16.22 2°54.281 11.8 131 6.9 98770 85
2003-01-21 08:42:41 51°16.22 2°54.281 11.3 132 6.9 98770 85
2003-01-21 08:42:45 51°16.22 2°54.281 10.7 139 6.9 98770 85
2003-01-21 08:42:51 51°16.22 2°54.281 9.5 127 6.9 98770 85
2003-01-21 08:42:55 51°16.22 2°54.281 11.9 141 6.9 98770 85
2003-01-21 08:43:01 51°16.22 2°54.281 11.7 133 6.9 98760 85
2003-01-21 08:43:05 51°16.22 2°54.282 10.2 133 6.9 98760 85
2003-01-21 08:43:11 51°16.22 2°54.282 11.1 141 6.9 98770 85
2003-01-21 08:43:15 51°16.22 2°54.282 9.9 141 6.9 98770 85
2003-01-21 08:43:21 51°16.219 2°54.282 10.7 142 6.9 98760 85
2003-01-21 08:43:25 51°16.22 2°54.282 11.9 137 6.9 98760 85
2003-01-21 08:43:31 51°16.219 2°54.282 9.8 137 6.9 98760 85
2003-01-21 08:43:35 51°16.219 2°54.282 10.1 139 6.9 98760 85
2003-01-21 08:43:41 51°16.219 2°54.282 9.4 128 6.9 98770 85
2003-01-21 08:43:45 51°16.219 2°54.282 10.5 130 6.9 98770 85
2003-01-21 08:43:49 51°16.219 2°54.282 9 131 6.9 98770 85
2003-01-21 08:43:55 51°16.219 2°54.282 8.3 146 6.9 98770 85
2003-01-21 08:44:00 51°16.219 2°54.283 10.3 137 6.9 98770 85
2003-01-21 08:44:06 51°16.219 2°54.283 11.2 134 6.9 98770 85
2003-01-21 08:44:11 51°16.219 2°54.283 10 136 6.9 98770 85
2003-01-21 08:44:16 51°16.219 2°54.283 9.5 137 6.9 98770 85
2003-01-21 08:44:20 51°16.219 2°54.283 9.6 144 6.9 98770 85
2003-01-21 08:44:26 51°16.219 2°54.283 8.6 139 6.9 98770 85
2003-01-21 08:44:31 51°16.219 2°54.283 10.3 143 6.9 98770 85
2003-01-21 08:44:36 51°16.219 2°54.283 9.3 137 6.9 98770 85
2003-01-21 08:44:40 51°16.219 2°54.283 8.8 137 6.9 98770 85
2003-01-21 08:44:46 51°16.219 2°54.283 9.8 134 6.9 98770 85
2003-01-21 08:44:51 51°16.219 2°54.283 9.2 143 6.9 98770 85
2003-01-21 08:44:56 51°16.219 2°54.283 9.4 142 6.9 98770 85
2003-01-21 08:45:00 51°16.219 2°54.283 10.3 135 6.9 98770 85
2003-01-21 08:45:06 51°16.219 2°54.283 8.8 143 6.9 98770 85
2003-01-21 08:45:10 51°16.218 2°54.283 9.8 139 6.9 98770 85
2003-01-21 08:45:16 51°16.218 2°54.283 12.2 145 6.9 98770 85
2003-01-21 08:45:20 51°16.218 2°54.283 11.7 135 6.9 98770 85
2003-01-21 08:45:26 51°16.218 2°54.283 12.6 134 6.9 98770 85
2003-01-21 08:45:30 51°16.219 2°54.283 11.4 134 6.8 98780 85
2003-01-21 08:45:36 51°16.219 2°54.283 11 135 6.8 98780 85
2003-01-21 08:45:40 51°16.219 2°54.283 11.8 138 6.9 98770 85
2003-01-21 08:45:46 51°16.219 2°54.283 10.7 135 6.9 98770 85
2003-01-21 08:45:50 51°16.219 2°54.283 11.9 134 6.9 98770 85
2003-01-21 08:45:56 51°16.219 2°54.283 10.2 133 6.9 98770 85
2003-01-21 08:46:00 51°16.219 2°54.283 10.3 141 6.9 98760 85
2003-01-21 08:46:06 51°16.219 2°54.283 9.4 139 6.9 98760 85
2003-01-21 08:46:11 51°16.219 2°54.283 9.6 134 6.9 98770 85
2003-01-21 08:46:16 51°16.219 2°54.283 10.1 133 6.9 98770 85
2003-01-21 08:46:20 51°16.219 2°54.283 9.7 140 6.9 98770 85
2003-01-21 08:46:26 51°16.219 2°54.283 9.8 143 6.9 98770 85
2003-01-21 08:46:30 51°16.219 2°54.283 10.4 137 6.9 98770 85
2003-01-21 08:46:36 51°16.219 2°54.283 10.7 138 6.9 98770 85
2003-01-21 08:46:40 51°16.219 2°54.283 10.3 136 6.9 98770 85
2003-01-21 08:46:46 51°16.219 2°54.283 9.8 136 6.9 98770 85
2003-01-21 08:46:50 51°16.218 2°54.283 10.7 135 6.9 98770 85
2003-01-21 08:46:56 51°16.218 2°54.283 10.2 137 6.9 98770 85
2003-01-21 08:47:00 51°16.218 2°54.283 10 134 6.9 98770 85
2003-01-21 08:47:06 51°16.218 2°54.283 10.3 134 6.9 98770 85
2003-01-21 08:47:10 51°16.218 2°54.283 9.2 129 6.9 98770 85
2003-01-21 08:47:16 51°16.219 2°54.283 9.5 134 6.9 98770 85
2003-01-21 08:47:20 51°16.219 2°54.283 9.4 142 6.9 98770 85
2003-01-21 08:47:26 51°16.219 2°54.283 9 133 6.9 98770 85
2003-01-21 08:47:30 51°16.219 2°54.283 10.9 133 6.9 98770 85
2003-01-21 08:47:36 51°16.219 2°54.283 8.7 138 6.9 98770 85
2003-01-21 08:47:40 51°16.219 2°54.283 10.2 137 6.9 98770 85
2003-01-21 08:47:46 51°16.219 2°54.283 10.2 131 6.9 98770 85
2003-01-21 08:47:50 51°16.219 2°54.283 10.1 130 6.9 98770 85
2003-01-21 08:47:56 51°16.219 2°54.283 9.1 129 6.9 98770 85
2003-01-21 08:48:00 51°16.219 2°54.283 8.6 133 6.9 98770 85
2003-01-21 08:48:06 51°16.219 2°54.284 10.4 134 6.9 98770 85
2003-01-21 08:48:10 51°16.219 2°54.284 10.6 134 6.9 98770 85
2003-01-21 08:48:16 51°16.219 2°54.284 10.5 140 6.9 98770 85
2003-01-21 08:48:20 51°16.219 2°54.284 10.6 126 6.9 98770 85
2003-01-21 08:48:26 51°16.219 2°54.284 9.2 135 6.9 98770 85
2003-01-21 08:48:31 51°16.219 2°54.284 9.3 135 6.9 98770 85
2003-01-21 08:48:36 51°16.219 2°54.284 10.9 135 6.9 98770 85
2003-01-21 08:48:40 51°16.219 2°54.284 10.5 135 6.9 98770 85
2003-01-21 08:48:46 51°16.219 2°54.284 9.1 136 6.9 98770 85
2003-01-21 08:48:50 51°16.219 2°54.284 9.4 130 6.9 98770 85
2003-01-21 08:48:56 51°16.219 2°54.284 10 135 6.9 98770 85
2003-01-21 08:49:00 51°16.219 2°54.284 11.2 141 6.9 98770 85
2003-01-21 08:49:06 51°16.219 2°54.284 10.1 134 6.9 98770 85
2003-01-21 08:49:11 51°16.219 2°54.284 9.6 129 6.9 98770 85
2003-01-21 08:49:16 51°16.219 2°54.284 10.3 134 6.9 98770 85
2003-01-21 08:49:21 51°16.219 2°54.284 9.5 135 6.9 98770 85
2003-01-21 08:49:26 51°16.219 2°54.284 10.3 125 6.9 98770 85
2003-01-21 08:49:30 51°16.219 2°54.284 10.4 132 6.9 98760 85
2003-01-21 08:49:35 51°16.219 2°54.284 10.3 130 6.9 98760 85
2003-01-21 08:49:39 51°16.219 2°54.284 9.4 134 6.9 98770 85
2003-01-21 08:49:46 51°16.219 2°54.284 10.6 127 6.9 98770 85
2003-01-21 08:49:50 51°16.219 2°54.284 9.1 137 6.9 98770 85
2003-01-21 08:49:56 51°16.219 2°54.284 10.5 146 6.9 98770 85
2003-01-21 08:50:00 51°16.219 2°54.284 11 141 6.9 98770 85
2003-01-21 08:50:06 51°16.219 2°54.283 9.1 130 6.9 98770 85
2003-01-21 08:50:10 51°16.219 2°54.283 9.6 138 6.9 98770 85
2003-01-21 08:50:16 51°16.219 2°54.283 10.3 140 6.9 98770 85
2003-01-21 08:50:20 51°16.219 2°54.283 9.8 136 6.9 98770 85
2003-01-21 08:50:26 51°16.219 2°54.283 10.4 135 6.9 98770 85
2003-01-21 08:50:31 51°16.219 2°54.283 9.3 143 6.9 98770 85
2003-01-21 08:50:36 51°16.219 2°54.283 7.6 142 6.9 98770 85
2003-01-21 08:50:40 51°16.219 2°54.282 9.9 140 6.9 98770 85
2003-01-21 08:50:46 51°16.219 2°54.282 10.2 143 6.9 98770 85
2003-01-21 08:50:50 51°16.219 2°54.282 10.1 126 6.9 98760 85
2003-01-21 08:50:56 51°16.219 2°54.282 9.4 132 6.9 98760 85
2003-01-21 08:51:00 51°16.219 2°54.282 10.4 131 6.9 98770 85
2003-01-21 08:51:06 51°16.219 2°54.282 9.2 133 6.9 98770 85
2003-01-21 08:51:11 51°16.219 2°54.282 10.6 131 6.9 98760 85
2003-01-21 08:51:16 51°16.219 2°54.282 10.1 136 6.9 98760 85
2003-01-21 08:51:21 51°16.219 2°54.281 9.5 137 6.9 98770 85
2003-01-21 08:51:26 51°16.219 2°54.281 10.1 140 6.9 98770 85
2003-01-21 08:51:31 51°16.219 2°54.281 9.1 148 6.9 98760 85
2003-01-21 08:51:36 51°16.219 2°54.281 9.9 140 6.9 98760 85
2003-01-21 08:51:41 51°16.219 2°54.281 10.6 137 6.9 98770 85
2003-01-21 08:51:46 51°16.219 2°54.281 10.5 139 6.9 98770 85
2003-01-21 08:51:50 51°16.219 2°54.281 11.3 134 6.9 98770 85
2003-01-21 08:51:56 51°16.219 2°54.281 11.2 137 6.9 98770 85
2003-01-21 08:52:00 51°16.219 2°54.281 10.9 138 6.9 98760 85
2003-01-21 08:52:06 51°16.219 2°54.28 10.4 137 6.9 98760 85
2003-01-21 08:52:10 51°16.219 2°54.28 10.2 139 6.9 98770 85
2003-01-21 08:52:16 51°16.219 2°54.28 10.3 130 6.9 98770 85
2003-01-21 08:52:20 51°16.219 2°54.28 11.1 137 6.9 98760 85
2003-01-21 08:52:26 51°16.219 2°54.28 9.3 132 6.9 98760 85
2003-01-21 08:52:30 51°16.219 2°54.28 10.1 134 6.9 98760 85
2003-01-21 08:52:36 51°16.219 2°54.28 10.2 132 6.9 98760 85
2003-01-21 08:52:40 51°16.219 2°54.28 12.7 140 6.9 98760 85
2003-01-21 08:52:46 51°16.219 2°54.28 11.1 134 6.9 98760 85
2003-01-21 08:52:50 51°16.219 2°54.28 12.5 130 6.9 98770 85
2003-01-21 08:52:56 51°16.219 2°54.28 10 133 6.9 98770 85
2003-01-21 08:53:00 51°16.219 2°54.28 10 139 6.9 98760 85
2003-01-21 08:53:05 51°16.219 2°54.28 10.9 131 6.9 98760 85
2003-01-21 08:53:10 51°16.219 2°54.28 10.6 130 6.9 98750 85
2003-01-21 08:53:16 51°16.219 2°54.28 10.5 132 6.9 98750 85
2003-01-21 08:53:20 51°16.219 2°54.28 10.6 129 6.9 98760 85
2003-01-21 08:53:26 51°16.219 2°54.28 10.3 137 6.9 98760 85
2003-01-21 08:53:30 51°16.219 2°54.28 10.5 130 6.9 98750 85
2003-01-21 08:53:35 51°16.219 2°54.281 9.9 130 6.9 98750 85
2003-01-21 08:53:40 51°16.219 2°54.281 10.3 133 6.9 98750 85
2003-01-21 08:53:46 51°16.219 2°54.281 9.9 134 6.9 98750 85
2003-01-21 08:53:50 51°16.219 2°54.281 8.4 138 6.9 98760 85
2003-01-21 08:53:56 51°16.219 2°54.281 10.1 142 6.9 98760 85
2003-01-21 08:54:00 51°16.219 2°54.281 9.9 147 6.9 98760 85
2003-01-21 08:54:04 51°16.219 2°54.281 9.2 142 6.9 98760 85
2003-01-21 08:54:10 51°16.219 2°54.281 9 139 6.9 98760 85
2003-01-21 08:54:16 51°16.219 2°54.281 8.8 142 6.9 98760 85
2003-01-21 08:54:20 51°16.219 2°54.281 9 140 6.9 98760 85
2003-01-21 08:54:26 51°16.219 2°54.281 9 137 6.9 98760 85
2003-01-21 08:54:30 51°16.219 2°54.282 9.3 141 6.9 98760 85
2003-01-21 08:54:36 51°16.219 2°54.282 9.8 134 6.9 98760 85
2003-01-21 08:54:40 51°16.219 2°54.282 11.7 136 6.9 98760 85
2003-01-21 08:54:46 51°16.219 2°54.282 11.3 138 6.9 98760 85
2003-01-21 08:54:50 51°16.219 2°54.282 12.2 136 6.9 98760 85
2003-01-21 08:54:54 51°16.219 2°54.282 11.6 138 6.9 98760 85
2003-01-21 08:55:00 51°16.219 2°54.282 10.6 137 6.9 98760 85
2003-01-21 08:55:06 51°16.22 2°54.282 10.9 138 6.9 98760 85
2003-01-21 08:55:10 51°16.22 2°54.282 11.1 139 6.9 98760 85
2003-01-21 08:55:16 51°16.22 2°54.282 11.1 134 6.9 98760 85
2003-01-21 08:55:20 51°16.22 2°54.283 10.2 143 6.9 98750 85
2003-01-21 08:55:26 51°16.22 2°54.283 8.7 131 6.9 98750 85
2003-01-21 08:55:30 51°16.22 2°54.282 10.5 144 6.9 98750 85
2003-01-21 08:55:36 51°16.22 2°54.283 10.1 138 6.9 98750 85
2003-01-21 08:55:40 51°16.22 2°54.283 8.6 140 6.9 98750 85
2003-01-21 08:55:46 51°16.22 2°54.283 9.2 146 6.9 98750 85
2003-01-21 08:55:50 51°16.22 2°54.283 10.3 140 6.9 98760 85
2003-01-21 08:55:56 51°16.22 2°54.283 10.5 133 6.9 98760 85
2003-01-21 08:56:00 51°16.22 2°54.283 9.7 138 6.9 98760 85
2003-01-21 08:56:04 51°16.22 2°54.283 11 135 6.9 98760 85
2003-01-21 08:56:10 51°16.22 2°54.283 11.4 132 6.9 98760 85
2003-01-21 08:56:16 51°16.22 2°54.282 9.8 134 6.9 98760 85
2003-01-21 08:56:20 51°16.22 2°54.282 10 135 6.9 98760 85
2003-01-21 08:56:26 51°16.22 2°54.282 9.9 131 6.9 98760 85
2003-01-21 08:56:30 51°16.22 2°54.282 10.6 135 6.9 98760 85
2003-01-21 08:56:36 51°16.22 2°54.282 11.4 142 6.9 98760 85
2003-01-21 08:56:40 51°16.22 2°54.282 12.5 142 6.9 98760 85
2003-01-21 08:56:45 51°16.22 2°54.282 12.2 135 6.9 98760 85
2003-01-21 08:56:50 51°16.22 2°54.282 11.6 135 6.9 98770 85
2003-01-21 08:56:55 51°16.22 2°54.282 11.7 137 6.9 98770 85
2003-01-21 08:57:00 51°16.22 2°54.282 11.6 141 6.9 98760 85
2003-01-21 08:57:05 51°16.22 2°54.282 10.8 140 6.9 98760 85
2003-01-21 08:57:10 51°16.22 2°54.282 10.7 130 6.9 98750 85
2003-01-21 08:57:16 51°16.22 2°54.282 10.5 134 6.9 98750 85
2003-01-21 08:57:20 51°16.22 2°54.282 11.2 136 6.9 98750 85
2003-01-21 08:57:26 51°16.22 2°54.282 10.9 130 6.9 98750 85
2003-01-21 08:57:30 51°16.22 2°54.282 11.6 137 6.9 98750 85
2003-01-21 08:57:36 51°16.22 2°54.282 10.1 139 6.9 98750 85
2003-01-21 08:57:40 51°16.22 2°54.282 10.2 139 6.9 98750 85
2003-01-21 08:57:44 51°16.22 2°54.282 10.5 131 6.9 98750 85
2003-01-21 08:57:50 51°16.22 2°54.282 10.2 134 6.9 98760 85
2003-01-21 08:57:56 51°16.22 2°54.282 10.5 144 6.9 98760 85
2003-01-21 08:58:00 51°16.22 2°54.282 11.9 137 6.9 98750 85
2003-01-21 08:58:04 51°16.22 2°54.282 10.6 133 6.9 98750 85
2003-01-21 08:58:10 51°16.221 2°54.282 10.6 133 6.9 98760 85
2003-01-21 08:58:16 51°16.221 2°54.282 9.6 134 6.9 98760 85
2003-01-21 08:58:20 51°16.221 2°54.282 13 133 6.9 98760 85
2003-01-21 08:58:26 51°16.221 2°54.283 10.6 132 6.9 98760 85
2003-01-21 08:58:30 51°16.221 2°54.283 10.2 140 7 98750 85
2003-01-21 08:58:36 51°16.221 2°54.283 9.9 145 7 98750 85
2003-01-21 08:58:40 51°16.221 2°54.283 10.5 138 6.9 98760 85
2003-01-21 08:58:46 51°16.221 2°54.283 11.2 141 6.9 98760 85
2003-01-21 08:58:50 51°16.221 2°54.283 11 139 6.9 98760 85
2003-01-21 08:58:55 51°16.221 2°54.283 10.4 137 6.9 98760 85
2003-01-21 08:59:00 51°16.221 2°54.283 12 134 6.9 98750 85
2003-01-21 08:59:06 51°16.221 2°54.283 11.2 135 6.9 98750 85
2003-01-21 08:59:10 51°16.221 2°54.283 10.5 137 6.9 98750 85
2003-01-21 08:59:16 51°16.221 2°54.283 9.6 141 6.9 98750 85
2003-01-21 08:59:20 51°16.221 2°54.283 10.2 139 6.9 98750 85
2003-01-21 08:59:26 51°16.221 2°54.283 10 135 6.9 98750 85
2003-01-21 08:59:30 51°16.221 2°54.283 9.5 145 7 98750 85
2003-01-21 08:59:36 51°16.221 2°54.282 9.4 142 7 98750 85
2003-01-21 08:59:40 51°16.221 2°54.282 10.5 138 7 98760 85
2003-01-21 08:59:45 51°16.221 2°54.282 10 144 7 98760 85
2003-01-21 08:59:50 51°16.22 2°54.282 11.2 142 7 98760 85
2003-01-21 08:59:54 51°16.221 2°54.282 9.9 138 7 98760 85
2003-01-21 09:00:00 51°16.22 2°54.282 10.9 137 6.9 98750 85
2003-01-21 09:00:06 51°16.22 2°54.282 10.6 134 6.9 98750 85
2003-01-21 09:00:10 51°16.22 2°54.282 10.4 137 7 98760 85
2003-01-21 09:00:16 51°16.22 2°54.282 12.4 131 7 98760 85
2003-01-21 09:00:21 51°16.22 2°54.282 12 124 7 98750 85
2003-01-21 09:00:26 51°16.22 2°54.282 12.1 116 7 98750 85
2003-01-21 09:00:30 51°16.22 2°54.282 11.6 128 7 98750 85
2003-01-21 09:00:36 51°16.22 2°54.282 11.3 122 7 98750 85
2003-01-21 09:00:40 51°16.22 2°54.283 9.9 145 6.9 98750 85
2003-01-21 09:00:44 51°16.22 2°54.283 10.4 146 6.9 98750 85
2003-01-21 09:00:50 51°16.22 2°54.283 12.1 137 7 98750 85
2003-01-21 09:00:56 51°16.22 2°54.283 9.9 140 7 98750 85
2003-01-21 09:01:00 51°16.221 2°54.283 13.1 134 7 98750 85
2003-01-21 09:01:04 51°16.221 2°54.283 12.3 133 7 98750 85
2003-01-21 09:01:10 51°16.221 2°54.283 12.3 133 7 98750 85
2003-01-21 09:01:16 51°16.221 2°54.283 13.2 137 7 98750 85
2003-01-21 09:01:20 51°16.221 2°54.283 11.4 148 6.9 98750 85
2003-01-21 09:01:26 51°16.221 2°54.283 11.9 146 6.9 98750 85
2003-01-21 09:01:30 51°16.221 2°54.283 11.9 140 7 98750 85
2003-01-21 09:01:36 51°16.221 2°54.283 11.1 136 7 98750 85
2003-01-21 09:01:40 51°16.221 2°54.282 13.3 138 7 98750 85
2003-01-21 09:01:46 51°16.221 2°54.282 12 135 7 98750 85
2003-01-21 09:01:50 51°16.221 2°54.282 12.1 134 7 98740 85
2003-01-21 09:01:54 51°16.221 2°54.282 11.5 134 7 98740 85
2003-01-21 09:02:00 51°16.221 2°54.282 11.3 146 7 98750 85
2003-01-21 09:02:06 51°16.221 2°54.282 10.6 141 7 98750 85
2003-01-21 09:02:10 51°16.22 2°54.281 9.7 127 7 98750 85
2003-01-21 09:02:15 51°16.22 2°54.281 12.1 136 7 98750 85
2003-01-21 09:02:20 51°16.22 2°54.281 11.5 140 7 98750 85
2003-01-21 09:02:26 51°16.22 2°54.281 10.7 136 7 98750 85
2003-01-21 09:02:30 51°16.22 2°54.281 11 133 7 98750 85
2003-01-21 09:02:35 51°16.22 2°54.281 10.9 134 7 98750 85
2003-01-21 09:02:40 51°16.22 2°54.281 11.3 126 7 98750 85
2003-01-21 09:02:46 51°16.22 2°54.281 11.4 130 7 98750 85
2003-01-21 09:02:50 51°16.22 2°54.281 10.3 134 7 98750 85
2003-01-21 09:02:54 51°16.22 2°54.281 10.7 144 7 98750 85
2003-01-21 09:03:00 51°16.22 2°54.281 9.9 140 7 98750 85
2003-01-21 09:03:06 51°16.22 2°54.281 10.4 146 7 98750 85
2003-01-21 09:03:11 51°16.22 2°54.281 10.7 142 7 98750 85
2003-01-21 09:03:14 51°16.22 2°54.281 10.2 132 7 98750 85
2003-01-21 09:03:20 51°16.22 2°54.281 8.9 134 7 98750 85
2003-01-21 09:03:25 51°16.219 2°54.281 9.7 136 7 98750 85
2003-01-21 09:03:30 51°16.219 2°54.281 9.8 135 7 98750 85
2003-01-21 09:03:34 51°16.219 2°54.281 9.4 134 7 98750 85
2003-01-21 09:03:40 51°16.219 2°54.281 11.9 134 7 98750 85
2003-01-21 09:03:46 51°16.219 2°54.281 11.2 131 7 98750 85
2003-01-21 09:03:50 51°16.219 2°54.281 11.9 133 7 98750 85
2003-01-21 09:03:56 51°16.219 2°54.281 12.4 133 7 98750 85
2003-01-21 09:04:00 51°16.219 2°54.281 11.4 136 7 98760 85
2003-01-21 09:04:04 51°16.219 2°54.281 11 134 7 98760 85
2003-01-21 09:04:11 51°16.219 2°54.281 10.5 142 7 98750 85
2003-01-21 09:04:16 51°16.219 2°54.281 11.5 140 7 98750 85
2003-01-21 09:04:20 51°16.219 2°54.281 11.9 135 7 98750 85
2003-01-21 09:04:24 51°16.219 2°54.281 12.5 145 7 98750 85
2003-01-21 09:04:31 51°16.219 2°54.282 11.5 146 7 98750 85
2003-01-21 09:04:36 51°16.219 2°54.281 9.6 141 7 98750 85
2003-01-21 09:04:41 51°16.219 2°54.282 11 130 7 98750 85
2003-01-21 09:04:45 51°16.218 2°54.282 10.9 135 7 98750 85
2003-01-21 09:04:51 51°16.218 2°54.281 11.1 140 7 98740 85
2003-01-21 09:04:56 51°16.218 2°54.281 11.3 137 7 98740 85
2003-01-21 09:05:00 51°16.218 2°54.281 12.2 143 7 98740 85
2003-01-21 09:05:04 51°16.218 2°54.281 12.1 134 7 98740 85
2003-01-21 09:05:11 51°16.218 2°54.281 12.6 140 7 98750 85
2003-01-21 09:05:15 51°16.218 2°54.281 11 134 7 98750 85
2003-01-21 09:05:21 51°16.218 2°54.281 10.1 134 7 98750 85
2003-01-21 09:05:25 51°16.218 2°54.281 11.6 142 7 98750 85
2003-01-21 09:05:31 51°16.218 2°54.281 12.4 133 7 98750 85
2003-01-21 09:05:36 51°16.218 2°54.281 11.2 138 7 98750 85
2003-01-21 09:05:41 51°16.218 2°54.281 11.1 137 7 98750 85
2003-01-21 09:05:45 51°16.218 2°54.281 10.4 134 7 98750 85
2003-01-21 09:05:51 51°16.218 2°54.281 9.6 130 7.1 98750 85
2003-01-21 09:05:56 51°16.218 2°54.281 10 133 7.1 98750 85
2003-01-21 09:06:01 51°16.218 2°54.281 10.9 135 7.1 98750 85
2003-01-21 09:06:05 51°16.218 2°54.281 10.2 134 7.1 98750 85
2003-01-21 09:06:11 51°16.218 2°54.281 10.1 133 7 98750 85
2003-01-21 09:06:16 51°16.218 2°54.281 11.5 134 7 98750 85
2003-01-21 09:06:21 51°16.218 2°54.281 9.6 127 7 98750 85
2003-01-21 09:06:25 51°16.218 2°54.281 11.3 124 7 98750 85
2003-01-21 09:06:31 51°16.218 2°54.281 10.6 134 7 98750 85
2003-01-21 09:06:35 51°16.218 2°54.281 10.4 128 7 98750 85
2003-01-21 09:06:41 51°16.218 2°54.281 11.2 133 7 98750 85
2003-01-21 09:06:45 51°16.218 2°54.281 10.6 132 7 98750 85
2003-01-21 09:06:51 51°16.218 2°54.281 9.5 130 7 98750 85
2003-01-21 09:06:55 51°16.218 2°54.281 9.9 135 7 98750 85
2003-01-21 09:07:01 51°16.218 2°54.281 10.6 141 7 98750 85
2003-01-21 09:07:06 51°16.218 2°54.282 9.5 141 7 98750 85
2003-01-21 09:07:11 51°16.218 2°54.282 11.8 127 7 98760 85
2003-01-21 09:07:15 51°16.218 2°54.282 12 134 7 98760 85